La Monte, Missouri
Current Conditions -  °F | °C
As of 2:25 PM on Thursday 23 Oct 2014 (Local Time) from KSZL Reporting Station
Broken Clouds Broken Clouds  
Wind Chill: 66°   Ceiling: 2500
Heat Index: 66°   Visibility: 10mi
Dew Point: 59°   Wind: 13mph
Humidity: 78%   Direction: 230°SW
Pressure: 30.07"   Gusts: NA
Location:  38.77°N, 93.43°W
Report Text: KSZL 231925Z 23011KT 10SM BKN025 19/15 A3007
Loading
Personal Weather Stations






























Interactive Weather Map
Tropical Storm Tracking
New forecast layout! Learn more

10-Day Weather Forecast

Advertisements
Track Severe Weather on mobile